createdAt,value
2024-02-22T00:00:39.182Z,995.02
2024-02-22T00:01:39.147Z,994.99
2024-02-22T00:02:39.097Z,994.93
2024-02-22T00:03:39.273Z,994.95
2024-02-22T00:04:39.311Z,994.91
2024-02-22T00:05:39.218Z,994.88
2024-02-22T00:06:39.139Z,994.87
2024-02-22T00:07:39.169Z,994.84
2024-02-22T00:08:39.224Z,994.80
2024-02-22T00:09:39.171Z,994.81
2024-02-22T00:10:39.140Z,994.81
2024-02-22T00:11:39.289Z,994.82
2024-02-22T00:12:39.163Z,994.79
2024-02-22T00:13:39.000Z,994.72
2024-02-22T00:14:39.018Z,994.75
2024-02-22T00:15:39.018Z,994.73
2024-02-22T00:16:38.997Z,994.72
2024-02-22T00:17:39.087Z,994.71
2024-02-22T00:18:39.014Z,994.75
2024-02-22T00:19:38.912Z,994.73
2024-02-22T00:20:38.880Z,994.72
2024-02-22T00:21:39.117Z,994.73
2024-02-22T00:22:38.896Z,994.69
2024-02-22T00:23:38.935Z,994.69
2024-02-22T00:24:38.908Z,994.68
2024-02-22T00:25:39.039Z,994.65
2024-02-22T00:26:38.794Z,994.65
2024-02-22T00:27:38.819Z,994.64
2024-02-22T00:28:38.817Z,994.65
2024-02-22T00:29:38.945Z,994.59
2024-02-22T00:30:38.731Z,994.59
2024-02-22T00:31:38.853Z,994.57
2024-02-22T00:32:38.835Z,994.51
2024-02-22T00:33:38.981Z,994.54
2024-02-22T00:34:38.833Z,994.53
2024-02-22T00:35:38.770Z,994.52
2024-02-22T00:36:38.698Z,994.46
2024-02-22T00:37:38.961Z,994.44
2024-02-22T00:38:38.748Z,994.43
2024-02-22T00:39:38.771Z,994.41
2024-02-22T00:40:38.763Z,994.39
2024-02-22T00:41:38.705Z,994.38
2024-02-22T00:42:38.682Z,994.37
2024-02-22T00:43:38.798Z,994.36
2024-02-22T00:44:38.683Z,994.33
2024-02-22T00:45:38.682Z,994.28
2024-02-22T00:46:38.755Z,994.33
2024-02-22T00:47:38.988Z,994.32
2024-02-22T00:48:38.852Z,994.29
2024-02-22T00:49:38.756Z,994.28
2024-02-22T00:50:38.909Z,994.27
2024-02-22T00:51:38.720Z,994.31
2024-02-22T00:52:38.638Z,994.21
2024-02-22T00:53:38.520Z,994.25
2024-02-22T00:54:38.543Z,994.21
2024-02-22T00:55:38.884Z,994.17
2024-02-22T00:56:38.596Z,994.14
2024-02-22T00:57:38.568Z,994.16
2024-02-22T00:58:38.586Z,994.11
2024-02-22T00:59:38.466Z,994.09
2024-02-22T01:00:38.564Z,994.09
2024-02-22T01:01:38.644Z,994.03
2024-02-22T01:02:38.452Z,994.08
2024-02-22T01:03:38.833Z,994.03
2024-02-22T01:04:38.649Z,993.99
2024-02-22T01:05:38.552Z,994.00
2024-02-22T01:06:38.716Z,993.96
2024-02-22T01:07:38.650Z,993.97
2024-02-22T01:08:38.428Z,993.95
2024-02-22T01:09:38.331Z,993.90
2024-02-22T01:10:38.350Z,993.89
2024-02-22T01:11:38.463Z,993.85
2024-02-22T01:12:38.403Z,993.86
2024-02-22T01:13:38.370Z,993.81
2024-02-22T01:14:38.282Z,993.78
2024-02-22T01:15:38.368Z,993.76
2024-02-22T01:16:38.284Z,993.74
2024-02-22T01:17:38.356Z,993.79
2024-02-22T01:18:38.371Z,993.75
2024-02-22T01:19:38.431Z,993.70
2024-02-22T01:20:38.322Z,993.71
2024-02-22T01:21:38.201Z,993.72
2024-02-22T01:22:38.377Z,993.72
2024-02-22T01:23:38.318Z,993.68
2024-02-22T01:24:38.262Z,993.66
2024-02-22T01:25:38.386Z,993.67
2024-02-22T01:26:38.220Z,993.66
2024-02-22T01:27:38.200Z,993.68
2024-02-22T01:28:38.188Z,993.65
2024-02-22T01:29:38.117Z,993.64
2024-02-22T01:30:38.133Z,993.59
2024-02-22T01:31:38.189Z,993.59
2024-02-22T01:32:40.252Z,993.58
2024-02-22T01:33:38.838Z,993.54
2024-02-22T01:34:38.192Z,993.54
2024-02-22T01:35:38.236Z,993.54
2024-02-22T01:36:38.081Z,993.53
2024-02-22T01:37:38.168Z,993.48
2024-02-22T01:38:38.107Z,993.46
2024-02-22T01:39:38.203Z,993.42
2024-02-22T01:40:38.164Z,993.33
2024-02-22T01:41:38.281Z,993.38
2024-02-22T01:42:38.063Z,993.33
2024-02-22T01:43:38.228Z,993.35
2024-02-22T01:44:38.106Z,993.27
2024-02-22T01:45:37.954Z,993.29
2024-02-22T01:46:37.968Z,993.24
2024-02-22T01:47:38.229Z,993.25
2024-02-22T01:48:38.114Z,993.26
2024-02-22T01:49:37.999Z,993.22
2024-02-22T01:50:38.005Z,993.21
2024-02-22T01:51:37.909Z,993.17
2024-02-22T01:52:37.958Z,993.15
2024-02-22T01:53:37.876Z,993.11
2024-02-22T01:54:37.848Z,993.17
2024-02-22T01:55:38.032Z,993.15
2024-02-22T01:56:37.862Z,993.10
2024-02-22T01:57:37.826Z,993.07
2024-02-22T01:58:38.005Z,993.06
2024-02-22T01:59:37.973Z,993.07
2024-02-22T02:00:37.835Z,993.08
2024-02-22T02:01:37.878Z,993.05
2024-02-22T02:02:37.831Z,993.07
2024-02-22T02:03:42.241Z,993.03
2024-02-22T02:04:37.839Z,993.05
2024-02-22T02:05:37.761Z,993.04
2024-02-22T02:06:37.843Z,993.03
2024-02-22T02:07:37.902Z,993.00
2024-02-22T02:08:37.786Z,992.97
2024-02-22T02:09:38.017Z,992.99
2024-02-22T02:10:37.721Z,992.97
2024-02-22T02:11:37.754Z,992.90
2024-02-22T02:12:37.685Z,992.91
2024-02-22T02:13:37.726Z,992.94
2024-02-22T02:14:37.686Z,992.94
2024-02-22T02:15:37.609Z,992.98
2024-02-22T02:16:37.666Z,992.94
2024-02-22T02:17:39.746Z,992.94
2024-02-22T02:18:39.510Z,992.90
2024-02-22T02:19:37.649Z,992.90
2024-02-22T02:20:37.629Z,992.90
2024-02-22T02:21:37.543Z,992.89
2024-02-22T02:22:37.587Z,992.90
2024-02-22T02:23:37.698Z,992.88
2024-02-22T02:24:37.619Z,992.88
2024-02-22T02:25:37.729Z,992.90
2024-02-22T02:26:37.617Z,992.89
2024-02-22T02:27:37.658Z,992.93
2024-02-22T02:28:38.395Z,992.89
2024-02-22T02:29:37.496Z,992.90
2024-02-22T02:30:37.556Z,992.87
2024-02-22T02:31:37.829Z,992.88
2024-02-22T02:32:37.542Z,992.88
2024-02-22T02:33:37.564Z,992.83
2024-02-22T02:34:37.578Z,992.81
2024-02-22T02:35:37.676Z,992.82
2024-02-22T02:36:37.587Z,992.80
2024-02-22T02:37:37.922Z,992.79
2024-02-22T02:38:37.687Z,992.77
2024-02-22T02:39:37.582Z,992.73
2024-02-22T02:40:37.683Z,992.68
2024-02-22T02:41:37.560Z,992.72
2024-02-22T02:42:37.481Z,992.67
2024-02-22T02:43:37.537Z,992.66
2024-02-22T02:44:37.856Z,992.65
2024-02-22T02:45:37.510Z,992.62
2024-02-22T02:46:37.532Z,992.62
2024-02-22T02:47:37.492Z,992.59
2024-02-22T02:48:37.401Z,992.58
2024-02-22T02:49:37.561Z,992.53
2024-02-22T02:50:37.366Z,992.53
2024-02-22T02:51:37.443Z,992.48
2024-02-22T02:52:37.338Z,992.46
2024-02-22T02:53:38.104Z,992.48
2024-02-22T02:54:37.304Z,992.42
2024-02-22T02:55:37.488Z,992.41
2024-02-22T02:56:37.264Z,992.38
2024-02-22T02:57:37.311Z,992.39
2024-02-22T02:58:37.430Z,992.32
2024-02-22T02:59:37.247Z,992.35
2024-02-22T03:00:37.303Z,992.34
2024-02-22T03:01:37.288Z,992.35
2024-02-22T03:02:37.193Z,992.36
2024-02-22T03:03:37.317Z,992.31
2024-02-22T03:04:37.335Z,992.31
2024-02-22T03:05:37.237Z,992.27
2024-02-22T03:06:37.261Z,992.25
2024-02-22T03:07:37.158Z,992.24
2024-02-22T03:08:37.112Z,992.22
2024-02-22T03:09:37.152Z,992.23
2024-02-22T03:10:37.202Z,992.25
2024-02-22T03:11:37.262Z,992.22
2024-02-22T03:12:37.190Z,992.27
2024-02-22T03:13:37.753Z,992.21
2024-02-22T03:14:37.079Z,992.16
2024-02-22T03:15:37.026Z,992.17
2024-02-22T03:16:37.011Z,992.19
2024-02-22T03:17:37.205Z,992.17
2024-02-22T03:18:37.029Z,992.19
2024-02-22T03:19:36.973Z,992.17
2024-02-22T03:20:37.336Z,992.17
2024-02-22T03:21:36.960Z,992.19
2024-02-22T03:22:36.996Z,992.15
2024-02-22T03:23:37.145Z,992.15
2024-02-22T03:24:36.963Z,992.15
2024-02-22T03:25:37.061Z,992.14
2024-02-22T03:26:36.873Z,992.13
2024-02-22T03:27:36.938Z,992.13
2024-02-22T03:28:36.946Z,992.14
2024-02-22T03:29:36.862Z,992.13
2024-02-22T03:30:36.828Z,992.11
2024-02-22T03:31:36.968Z,992.16
2024-02-22T03:32:36.944Z,992.11
2024-02-22T03:33:36.807Z,992.10
2024-02-22T03:34:36.955Z,992.11
2024-02-22T03:35:36.825Z,992.10
2024-02-22T03:36:36.767Z,992.13
2024-02-22T03:37:37.669Z,992.07
2024-02-22T03:38:36.945Z,992.09
2024-02-22T03:39:36.738Z,992.11
2024-02-22T03:40:36.953Z,992.10
2024-02-22T03:41:36.798Z,992.11
2024-02-22T03:42:36.776Z,992.09
2024-02-22T03:43:36.757Z,992.07
2024-02-22T03:44:36.706Z,992.06
2024-02-22T03:45:36.725Z,992.05
2024-02-22T03:46:36.734Z,992.06
2024-02-22T03:47:36.705Z,992.04
2024-02-22T03:48:36.713Z,992.03
2024-02-22T03:49:36.701Z,992.02
2024-02-22T03:50:36.660Z,992.01
2024-02-22T03:51:36.653Z,992.04
2024-02-22T03:52:36.674Z,992.01
2024-02-22T03:53:36.770Z,992.00
2024-02-22T03:54:36.623Z,992.00
2024-02-22T03:55:36.577Z,991.99
2024-02-22T03:56:37.457Z,991.96
2024-02-22T03:57:36.580Z,991.98
2024-02-22T03:58:36.557Z,991.96
2024-02-22T03:59:36.774Z,991.97
2024-02-22T04:00:36.603Z,991.97
2024-02-22T04:01:36.730Z,991.93
2024-02-22T04:02:36.557Z,991.92
2024-02-22T04:03:36.475Z,991.89
2024-02-22T04:04:36.695Z,991.87
2024-02-22T04:05:36.568Z,991.87
2024-02-22T04:06:39.624Z,991.86
2024-02-22T04:07:36.459Z,991.85
2024-02-22T04:08:36.445Z,991.84
2024-02-22T04:09:36.437Z,991.83
2024-02-22T04:10:36.418Z,991.81
2024-02-22T04:11:36.508Z,991.80
2024-02-22T04:12:36.404Z,991.79
2024-02-22T04:13:36.417Z,991.80
2024-02-22T04:14:36.340Z,991.76
2024-02-22T04:15:36.415Z,991.75
2024-02-22T04:16:36.375Z,991.76
2024-02-22T04:17:36.351Z,991.75
2024-02-22T04:18:36.401Z,991.73
2024-02-22T04:19:36.493Z,991.69
2024-02-22T04:20:36.348Z,991.71
2024-02-22T04:21:36.311Z,991.68
2024-02-22T04:22:36.313Z,991.68
2024-02-22T04:23:36.556Z,991.65
2024-02-22T04:24:36.554Z,991.63
2024-02-22T04:25:36.265Z,991.64
2024-02-22T04:26:36.698Z,991.64
2024-02-22T04:27:36.205Z,991.59
2024-02-22T04:28:36.275Z,991.60
2024-02-22T04:29:36.255Z,991.58
2024-02-22T04:30:36.283Z,991.58
2024-02-22T04:31:36.297Z,991.56
2024-02-22T04:32:36.283Z,991.55
2024-02-22T04:33:36.180Z,991.53
2024-02-22T04:34:37.327Z,991.51
2024-02-22T04:35:36.272Z,991.47
2024-02-22T04:36:36.154Z,991.45
2024-02-22T04:37:36.533Z,991.46
2024-02-22T04:38:36.177Z,991.43
2024-02-22T04:39:36.727Z,991.39
2024-02-22T04:40:36.117Z,991.40
2024-02-22T04:41:36.106Z,991.35
2024-02-22T04:42:36.086Z,991.35
2024-02-22T04:43:36.161Z,991.31
2024-02-22T04:44:36.036Z,991.29
2024-02-22T04:45:36.098Z,991.30
2024-02-22T04:46:36.136Z,991.29
2024-02-22T04:47:36.041Z,991.28
2024-02-22T04:48:36.144Z,991.26
2024-02-22T04:49:36.100Z,991.26
2024-02-22T04:50:35.977Z,991.23
2024-02-22T04:51:36.148Z,991.21
2024-02-22T04:52:36.014Z,991.21
2024-02-22T04:53:36.011Z,991.20
2024-02-22T04:54:41.464Z,991.18
2024-02-22T04:55:36.053Z,991.19
2024-02-22T04:56:35.963Z,991.14
2024-02-22T04:57:35.899Z,991.14
2024-02-22T04:58:35.903Z,991.13
2024-02-22T04:59:35.903Z,991.12
2024-02-22T05:00:36.141Z,991.12
2024-02-22T05:01:36.033Z,991.06
2024-02-22T05:02:35.962Z,991.05
2024-02-22T05:03:35.877Z,991.02
2024-02-22T05:04:35.860Z,991.02
2024-02-22T05:05:36.011Z,990.99
2024-02-22T05:06:35.858Z,991.01
2024-02-22T05:07:36.670Z,991.01
2024-02-22T05:08:37.784Z,991.02
2024-02-22T05:09:35.827Z,991.04
2024-02-22T05:10:35.939Z,991.05
2024-02-22T05:11:35.886Z,991.07
2024-02-22T05:12:35.783Z,991.06
2024-02-22T05:13:35.797Z,991.02
2024-02-22T05:14:36.014Z,990.99
2024-02-22T05:15:35.704Z,990.95
2024-02-22T05:16:35.789Z,990.94
2024-02-22T05:17:35.741Z,990.95
2024-02-22T05:18:35.757Z,990.93
2024-02-22T05:19:35.765Z,990.92
2024-02-22T05:20:35.746Z,990.90
2024-02-22T05:21:35.719Z,990.88
2024-02-22T05:22:35.673Z,990.88
2024-02-22T05:23:35.709Z,990.87
2024-02-22T05:24:35.636Z,990.89
2024-02-22T05:25:35.683Z,990.89
2024-02-22T05:26:35.652Z,990.88
2024-02-22T05:27:38.369Z,990.86
2024-02-22T05:28:35.637Z,990.84
2024-02-22T05:29:35.640Z,990.85
2024-02-22T05:30:35.531Z,990.84
2024-02-22T05:31:35.633Z,990.85
2024-02-22T05:32:35.589Z,990.85
2024-02-22T05:33:35.668Z,990.87
2024-02-22T05:34:35.651Z,990.84
2024-02-22T05:35:35.513Z,990.82
2024-02-22T05:36:35.508Z,990.82
2024-02-22T05:37:36.237Z,990.80
2024-02-22T05:38:35.506Z,990.80
2024-02-22T05:39:35.466Z,990.81
2024-02-22T05:40:35.512Z,990.79
2024-02-22T05:41:35.785Z,990.78
2024-02-22T05:42:35.474Z,990.73
2024-02-22T05:43:35.432Z,990.76
2024-02-22T05:44:35.464Z,990.74
2024-02-22T05:45:35.480Z,990.77
2024-02-22T05:46:35.434Z,990.75
2024-02-22T05:47:35.463Z,990.77
2024-02-22T05:48:35.494Z,990.80
2024-02-22T05:49:35.423Z,990.82
2024-02-22T05:50:35.367Z,990.80
2024-02-22T05:51:35.442Z,990.76
2024-02-22T05:52:35.400Z,990.77
2024-02-22T05:53:35.377Z,990.77
2024-02-22T05:54:35.358Z,990.79
2024-02-22T05:55:35.388Z,990.81
2024-02-22T05:56:36.166Z,990.77
2024-02-22T05:57:35.263Z,990.76
2024-02-22T05:58:35.351Z,990.74
2024-02-22T05:59:35.298Z,990.71
2024-02-22T06:00:35.286Z,990.68
2024-02-22T06:01:35.557Z,990.68
2024-02-22T06:02:36.604Z,990.68
2024-02-22T06:03:35.262Z,990.66
2024-02-22T06:04:35.314Z,990.65
2024-02-22T06:05:35.313Z,990.60
2024-02-22T06:06:35.246Z,990.61
2024-02-22T06:07:35.283Z,990.59
2024-02-22T06:08:35.295Z,990.59
2024-02-22T06:09:35.208Z,990.59
2024-02-22T06:10:35.183Z,990.57
2024-02-22T06:11:35.269Z,990.58
2024-02-22T06:12:35.092Z,990.58
2024-02-22T06:13:35.216Z,990.59
2024-02-22T06:14:35.050Z,990.58
2024-02-22T06:15:35.097Z,990.59
2024-02-22T06:16:35.065Z,990.60
2024-02-22T06:17:35.034Z,990.59
2024-02-22T06:18:38.069Z,990.59
2024-02-22T06:19:35.060Z,990.59
2024-02-22T06:20:35.001Z,990.58
2024-02-22T06:21:35.037Z,990.61
2024-02-22T06:22:35.114Z,990.61
2024-02-22T06:23:34.945Z,990.62
2024-02-22T06:24:35.070Z,990.62
2024-02-22T06:25:35.019Z,990.61
2024-02-22T06:26:34.937Z,990.60
2024-02-22T06:27:34.925Z,990.58
2024-02-22T06:28:34.959Z,990.61
2024-02-22T06:29:34.908Z,990.58
2024-02-22T06:30:34.903Z,990.59
2024-02-22T06:31:34.959Z,990.58
2024-02-22T06:32:34.923Z,990.60
2024-02-22T06:33:35.166Z,990.60
2024-02-22T06:34:35.129Z,990.62
2024-02-22T06:35:34.832Z,990.62
2024-02-22T06:36:35.119Z,990.63
2024-02-22T06:37:34.923Z,990.64
2024-02-22T06:38:34.845Z,990.65
2024-02-22T06:39:34.791Z,990.64
2024-02-22T06:40:34.871Z,990.65
2024-02-22T06:41:34.853Z,990.65
2024-02-22T06:42:34.762Z,990.64
2024-02-22T06:43:34.809Z,990.61
2024-02-22T06:44:34.830Z,990.61
2024-02-22T06:45:34.765Z,990.61
2024-02-22T06:46:34.793Z,990.60
2024-02-22T06:47:34.943Z,990.58
2024-02-22T06:48:34.761Z,990.53
2024-02-22T06:49:34.860Z,990.51
2024-02-22T06:50:34.681Z,990.48
2024-02-22T06:51:34.744Z,990.45
2024-02-22T06:52:34.708Z,990.43
2024-02-22T06:53:34.894Z,990.44
2024-02-22T06:54:34.705Z,990.42
2024-02-22T06:55:34.721Z,990.43
2024-02-22T06:56:34.601Z,990.40
2024-02-22T06:57:34.627Z,990.40
2024-02-22T06:58:34.641Z,990.36
2024-02-22T06:59:34.601Z,990.35
2024-02-22T07:00:34.870Z,990.31
2024-02-22T07:01:34.625Z,990.27
2024-02-22T07:02:34.574Z,990.26
2024-02-22T07:03:34.552Z,990.23
2024-02-22T07:04:34.594Z,990.21
2024-02-22T07:05:35.256Z,990.17
2024-02-22T07:06:34.494Z,990.15
2024-02-22T07:07:34.560Z,990.13
2024-02-22T07:08:34.560Z,990.10
2024-02-22T07:09:34.479Z,990.10
2024-02-22T07:10:34.512Z,990.09
2024-02-22T07:11:35.287Z,990.09
2024-02-22T07:12:34.420Z,990.09
2024-02-22T07:13:34.591Z,990.10
2024-02-22T07:14:34.406Z,990.07
2024-02-22T07:15:34.474Z,990.05
2024-02-22T07:16:34.633Z,990.02
2024-02-22T07:17:34.509Z,990.02
2024-02-22T07:18:34.561Z,990.00
2024-02-22T07:19:34.540Z,990.00
2024-02-22T07:20:34.482Z,990.00
2024-02-22T07:21:34.379Z,990.00
2024-02-22T07:22:34.405Z,989.99
2024-02-22T07:23:34.444Z,990.00
2024-02-22T07:24:34.342Z,989.97
2024-02-22T07:25:34.469Z,989.96
2024-02-22T07:26:34.299Z,989.92
2024-02-22T07:27:34.305Z,989.92
2024-02-22T07:28:34.297Z,989.92
2024-02-22T07:29:34.378Z,989.92
2024-02-22T07:30:34.287Z,989.92
2024-02-22T07:31:34.297Z,989.92
2024-02-22T07:32:34.260Z,989.93
2024-02-22T07:33:34.368Z,989.95
2024-02-22T07:34:34.289Z,989.95
2024-02-22T07:35:34.295Z,989.93
2024-02-22T07:36:34.200Z,989.94
2024-02-22T07:37:34.204Z,989.89
2024-02-22T07:38:34.207Z,989.88
2024-02-22T07:39:34.215Z,989.87
2024-02-22T07:40:34.192Z,989.84
2024-02-22T07:41:34.173Z,989.84
2024-02-22T07:42:34.275Z,989.82
2024-02-22T07:43:34.194Z,989.80
2024-02-22T07:44:34.192Z,989.79
2024-02-22T07:45:34.254Z,989.77
2024-02-22T07:46:34.094Z,989.77
2024-02-22T07:47:34.109Z,989.75
2024-02-22T07:48:34.122Z,989.75
2024-02-22T07:49:34.129Z,989.75
2024-02-22T07:50:34.054Z,989.73
2024-02-22T07:51:41.875Z,989.70
2024-02-22T07:52:34.016Z,989.68
2024-02-22T07:53:34.686Z,989.66
2024-02-22T07:54:34.033Z,989.66
2024-02-22T07:55:34.077Z,989.65
2024-02-22T07:56:35.104Z,989.64
2024-02-22T07:57:33.988Z,989.64
2024-02-22T07:58:34.010Z,989.63
2024-02-22T07:59:33.972Z,989.60
2024-02-22T08:00:34.050Z,989.58
2024-02-22T08:01:34.018Z,989.58
2024-02-22T08:02:34.034Z,989.56
2024-02-22T08:03:33.921Z,989.55
2024-02-22T08:04:34.177Z,989.54
2024-02-22T08:05:33.925Z,989.50
2024-02-22T08:06:33.873Z,989.49
2024-02-22T08:07:33.950Z,989.47
2024-02-22T08:08:33.907Z,989.44
2024-02-22T08:09:33.864Z,989.41
2024-02-22T08:10:33.869Z,989.38
2024-02-22T08:11:33.939Z,989.34
2024-02-22T08:12:33.814Z,989.29
2024-02-22T08:13:33.840Z,989.27
2024-02-22T08:14:33.848Z,989.23
2024-02-22T08:15:33.793Z,989.22
2024-02-22T08:16:33.782Z,989.19
2024-02-22T08:17:33.861Z,989.17
2024-02-22T08:18:33.827Z,989.14
2024-02-22T08:19:33.856Z,989.11
2024-02-22T08:20:34.099Z,989.08
2024-02-22T08:21:33.718Z,989.07
2024-02-22T08:22:33.763Z,989.06
2024-02-22T08:23:33.805Z,989.10
2024-02-22T08:24:33.741Z,989.11
2024-02-22T08:25:33.827Z,989.12
2024-02-22T08:26:33.669Z,989.12
2024-02-22T08:27:33.973Z,989.12
2024-02-22T08:28:33.748Z,989.11
2024-02-22T08:29:33.656Z,989.09
2024-02-22T08:30:33.647Z,989.08
2024-02-22T08:31:33.755Z,989.04
2024-02-22T08:32:33.732Z,989.00
2024-02-22T08:33:33.795Z,988.95
2024-02-22T08:34:33.896Z,988.92
2024-02-22T08:35:33.739Z,988.89
2024-02-22T08:36:33.603Z,988.87
2024-02-22T08:37:33.652Z,988.86
2024-02-22T08:38:33.591Z,988.85
2024-02-22T08:39:33.588Z,988.85
2024-02-22T08:40:39.270Z,988.85
2024-02-22T08:41:33.751Z,988.83
2024-02-22T08:42:33.502Z,988.82
2024-02-22T08:43:33.620Z,988.84
2024-02-22T08:44:33.508Z,988.81
2024-02-22T08:45:33.478Z,988.78
2024-02-22T08:46:34.358Z,988.79
2024-02-22T08:47:33.526Z,988.79
2024-02-22T08:48:33.524Z,988.78
2024-02-22T08:49:33.543Z,988.79
2024-02-22T08:50:33.521Z,988.79
2024-02-22T08:51:33.387Z,988.77
2024-02-22T08:52:33.432Z,988.73
2024-02-22T08:53:33.384Z,988.68
2024-02-22T08:54:33.396Z,988.66
2024-02-22T08:55:33.378Z,988.61
2024-02-22T08:56:33.428Z,988.58
2024-02-22T08:57:43.042Z,988.57
2024-02-22T08:58:33.359Z,988.55
2024-02-22T08:59:33.344Z,988.55
2024-02-22T09:00:33.377Z,988.50
2024-02-22T09:01:33.411Z,988.49
2024-02-22T09:02:33.351Z,988.46
2024-02-22T09:03:33.354Z,988.45
2024-02-22T09:04:33.341Z,988.40
2024-02-22T09:05:33.443Z,988.39
2024-02-22T09:06:33.393Z,988.35
2024-02-22T09:07:33.466Z,988.34
2024-02-22T09:08:33.315Z,988.32
2024-02-22T09:09:33.216Z,988.31
2024-02-22T09:10:33.228Z,988.32
2024-02-22T09:11:33.298Z,988.34
2024-02-22T09:12:33.197Z,988.34
2024-02-22T09:13:33.213Z,988.32
2024-02-22T09:14:33.202Z,988.30
2024-02-22T09:15:33.166Z,988.26
2024-02-22T09:16:33.146Z,988.22
2024-02-22T09:17:33.196Z,988.19
2024-02-22T09:18:33.231Z,988.15
2024-02-22T09:19:33.138Z,988.12
2024-02-22T09:20:33.130Z,988.07
2024-02-22T09:21:33.079Z,988.03
2024-02-22T09:22:33.097Z,987.99
2024-02-22T09:23:33.232Z,987.97
2024-02-22T09:24:33.032Z,987.95
2024-02-22T09:25:33.145Z,987.92
2024-02-22T09:26:33.040Z,987.86
2024-02-22T09:27:33.018Z,987.83
2024-02-22T09:28:33.060Z,987.75
2024-02-22T09:29:33.002Z,987.70
2024-02-22T09:30:32.988Z,987.67
2024-02-22T09:31:33.076Z,987.64
2024-02-22T09:32:33.557Z,987.62
2024-02-22T09:33:33.083Z,987.60
2024-02-22T09:34:33.006Z,987.62
2024-02-22T09:35:32.937Z,987.58
2024-02-22T09:36:32.929Z,987.56
2024-02-22T09:37:32.935Z,987.58
2024-02-22T09:38:32.911Z,987.62
2024-02-22T09:39:32.893Z,987.63
2024-02-22T09:40:32.960Z,987.60
2024-02-22T09:41:32.889Z,987.57
2024-02-22T09:42:32.877Z,987.54
2024-02-22T09:43:32.945Z,987.52
2024-02-22T09:44:32.823Z,987.49
2024-02-22T09:45:32.834Z,987.48
2024-02-22T09:46:32.893Z,987.46
2024-02-22T09:47:33.016Z,987.45
2024-02-22T09:48:32.882Z,987.41
2024-02-22T09:49:32.902Z,987.37
2024-02-22T09:50:32.837Z,987.38
2024-02-22T09:51:32.808Z,987.39
2024-02-22T09:52:32.774Z,987.36
2024-02-22T09:53:32.724Z,987.35
2024-02-22T09:54:32.785Z,987.32
2024-02-22T09:55:32.874Z,987.26
2024-02-22T09:56:32.749Z,987.21
2024-02-22T09:57:32.716Z,987.22
2024-02-22T09:58:32.694Z,987.22
2024-02-22T09:59:32.714Z,987.19
2024-02-22T10:00:32.721Z,987.15
2024-02-22T10:01:32.758Z,987.12
2024-02-22T10:02:32.669Z,987.10
2024-02-22T10:03:33.010Z,987.03
2024-02-22T10:04:32.667Z,986.99
2024-02-22T10:05:32.718Z,986.95
2024-02-22T10:06:32.625Z,986.92
2024-02-22T10:07:32.744Z,986.89
2024-02-22T10:08:32.678Z,986.86
2024-02-22T10:09:32.589Z,986.86
2024-02-22T10:10:32.596Z,986.81
2024-02-22T10:11:32.666Z,986.78
2024-02-22T10:12:33.329Z,986.74
2024-02-22T10:13:32.581Z,986.71
2024-02-22T10:14:32.592Z,986.66
2024-02-22T10:15:32.522Z,986.65
2024-02-22T10:16:32.501Z,986.65
2024-02-22T10:17:32.522Z,986.60
2024-02-22T10:18:32.570Z,986.59
2024-02-22T10:19:32.534Z,986.55
2024-02-22T10:20:32.598Z,986.52
2024-02-22T10:21:32.456Z,986.51
2024-02-22T10:22:32.431Z,986.49
2024-02-22T10:23:32.495Z,986.48
2024-02-22T10:24:32.429Z,986.46
2024-02-22T10:25:32.771Z,986.43
2024-02-22T10:26:32.501Z,986.42
2024-02-22T10:27:32.406Z,986.42
2024-02-22T10:28:32.438Z,986.41
2024-02-22T10:29:32.338Z,986.39
2024-02-22T10:30:32.373Z,986.36
2024-02-22T10:31:32.378Z,986.36
2024-02-22T10:32:32.683Z,986.31
2024-02-22T10:33:32.638Z,986.29
2024-02-22T10:34:32.357Z,986.27
2024-02-22T10:35:32.355Z,986.24
2024-02-22T10:36:32.317Z,986.23
2024-02-22T10:37:32.281Z,986.19
2024-02-22T10:38:32.331Z,986.14
2024-02-22T10:39:32.496Z,986.12
2024-02-22T10:40:32.228Z,986.09
2024-02-22T10:41:32.265Z,986.06
2024-02-22T10:42:32.215Z,986.02
2024-02-22T10:43:32.221Z,986.02
2024-02-22T10:44:32.222Z,986.00
2024-02-22T10:45:32.203Z,985.97
2024-02-22T10:46:32.467Z,985.93
2024-02-22T10:47:32.276Z,985.93
2024-02-22T10:48:32.223Z,985.93
2024-02-22T10:49:32.159Z,985.90
2024-02-22T10:50:32.203Z,985.88
2024-02-22T10:51:32.193Z,985.84
2024-02-22T10:52:32.142Z,985.75
2024-02-22T10:53:32.088Z,985.70
2024-02-22T10:54:32.083Z,985.63
2024-02-22T10:55:32.070Z,985.60
2024-02-22T10:56:32.071Z,985.55
2024-02-22T10:57:32.278Z,985.49
2024-02-22T10:58:32.289Z,985.49
2024-02-22T10:59:32.033Z,985.52
2024-02-22T11:00:32.066Z,985.55
2024-02-22T11:01:32.054Z,985.57
2024-02-22T11:02:32.036Z,985.55
2024-02-22T11:03:32.034Z,985.51
2024-02-22T11:04:31.995Z,985.49
2024-02-22T11:05:32.034Z,985.44
2024-02-22T11:06:32.038Z,985.42
2024-02-22T11:07:31.965Z,985.41
2024-02-22T11:08:31.996Z,985.41
2024-02-22T11:09:31.942Z,985.39
2024-02-22T11:10:31.921Z,985.38
2024-02-22T11:11:32.276Z,985.33
2024-02-22T11:12:31.919Z,985.31
2024-02-22T11:13:32.794Z,985.31
2024-02-22T11:14:34.755Z,985.25
2024-02-22T11:15:31.910Z,985.24
2024-02-22T11:16:31.876Z,985.20
2024-02-22T11:17:31.947Z,985.15
2024-02-22T11:18:31.930Z,985.09
2024-02-22T11:19:31.849Z,985.02
2024-02-22T11:20:31.823Z,984.97
2024-02-22T11:21:31.824Z,984.94
2024-02-22T11:22:31.779Z,984.93
2024-02-22T11:23:31.877Z,984.93
2024-02-22T11:24:31.813Z,984.93
2024-02-22T11:25:31.790Z,984.90
2024-02-22T11:26:31.831Z,984.82
2024-02-22T11:27:31.727Z,984.78
2024-02-22T11:28:31.758Z,984.76
2024-02-22T11:29:31.767Z,984.73
2024-02-22T11:30:31.718Z,984.67
2024-02-22T11:31:31.684Z,984.66
2024-02-22T11:32:31.710Z,984.63
2024-02-22T11:33:31.763Z,984.63
2024-02-22T11:34:31.703Z,984.61
2024-02-22T11:35:31.913Z,984.60
2024-02-22T11:36:31.680Z,984.62
2024-02-22T11:37:31.655Z,984.60
2024-02-22T11:38:31.628Z,984.58
2024-02-22T11:39:31.651Z,984.55
2024-02-22T11:40:31.634Z,984.50
2024-02-22T11:41:31.841Z,984.47
2024-02-22T11:42:31.667Z,984.44
2024-02-22T11:43:31.650Z,984.48
2024-02-22T11:44:31.664Z,984.47
2024-02-22T11:45:31.574Z,984.49
2024-02-22T11:46:31.605Z,984.45
2024-02-22T11:47:31.697Z,984.43
2024-02-22T11:48:31.755Z,984.41
2024-02-22T11:49:31.520Z,984.33
2024-02-22T11:50:31.526Z,984.28
2024-02-22T11:51:31.485Z,984.23
2024-02-22T11:52:31.516Z,984.21
2024-02-22T11:53:31.481Z,984.16
2024-02-22T11:54:31.447Z,984.13
2024-02-22T11:55:31.504Z,984.09
2024-02-22T11:56:31.442Z,984.06
2024-02-22T11:57:31.425Z,983.99
2024-02-22T11:58:31.441Z,983.99
2024-02-22T11:59:31.468Z,983.96
2024-02-22T12:00:31.424Z,983.88
2024-02-22T12:01:31.399Z,983.88
2024-02-22T12:02:31.390Z,983.80
2024-02-22T12:03:31.376Z,983.73
2024-02-22T12:04:31.342Z,983.65
2024-02-22T12:05:31.672Z,983.56
2024-02-22T12:06:31.408Z,983.53
2024-02-22T12:07:31.409Z,983.47
2024-02-22T12:08:31.355Z,983.44
2024-02-22T12:09:31.288Z,983.38
2024-02-22T12:10:31.353Z,983.33
2024-02-22T12:11:31.364Z,983.28
2024-02-22T12:12:31.294Z,983.21
2024-02-22T12:13:31.261Z,983.18
2024-02-22T12:14:31.286Z,983.15
2024-02-22T12:15:31.274Z,983.13
2024-02-22T12:16:31.202Z,983.10
2024-02-22T12:17:31.287Z,983.08
2024-02-22T12:18:31.315Z,983.08
2024-02-22T12:19:31.350Z,983.07
2024-02-22T12:20:31.206Z,983.04
2024-02-22T12:21:31.163Z,983.01
2024-02-22T12:22:31.193Z,982.99
2024-02-22T12:23:31.156Z,982.96
2024-02-22T12:24:31.132Z,982.96
2024-02-22T12:25:31.111Z,982.91
2024-02-22T12:26:31.185Z,982.93
2024-02-22T12:27:31.093Z,982.93
2024-02-22T12:28:31.128Z,982.89